sensor_id;sensor_type;location;lat;lon;timestamp;P1;durP1;ratioP1;P2;durP2;ratioP2
54665;SDS011;40566;50.006;36.180;2022-10-22T00:03:24;11.82;;;4.50;;
54665;SDS011;40566;50.006;36.180;2022-10-22T00:08:25;16.33;;;5.72;;
54665;SDS011;40566;50.006;36.180;2022-10-22T00:13:26;14.00;;;4.53;;
54665;SDS011;40566;50.006;36.180;2022-10-22T00:18:27;10.55;;;3.83;;
54665;SDS011;40566;50.006;36.180;2022-10-22T00:23:28;11.48;;;4.25;;
54665;SDS011;40566;50.006;36.180;2022-10-22T00:28:29;11.88;;;4.07;;
54665;SDS011;40566;50.006;36.180;2022-10-22T00:33:30;11.57;;;4.30;;
54665;SDS011;40566;50.006;36.180;2022-10-22T00:38:31;9.23;;;4.18;;
54665;SDS011;40566;50.006;36.180;2022-10-22T00:43:32;11.02;;;4.18;;
54665;SDS011;40566;50.006;36.180;2022-10-22T00:48:33;10.70;;;3.90;;
54665;SDS011;40566;50.006;36.180;2022-10-22T00:53:38;11.15;;;4.53;;
54665;SDS011;40566;50.006;36.180;2022-10-22T00:58:46;8.15;;;4.03;;
54665;SDS011;40566;50.006;36.180;2022-10-22T01:03:51;9.43;;;3.55;;
54665;SDS011;40566;50.006;36.180;2022-10-22T01:09:05;9.35;;;3.85;;
54665;SDS011;40566;50.006;36.180;2022-10-22T01:14:33;9.48;;;3.90;;
54665;SDS011;40566;50.006;36.180;2022-10-22T01:25:33;11.93;;;3.85;;
54665;SDS011;40566;50.006;36.180;2022-10-22T01:36:00;12.40;;;3.42;;
54665;SDS011;40566;50.006;36.180;2022-10-22T01:41:02;12.35;;;4.07;;
54665;SDS011;40566;50.006;36.180;2022-10-22T01:46:04;10.48;;;4.18;;
54665;SDS011;40566;50.006;36.180;2022-10-22T01:56:19;12.13;;;4.35;;
54665;SDS011;40566;50.006;36.180;2022-10-22T02:07:05;12.55;;;4.85;;
54665;SDS011;40566;50.006;36.180;2022-10-22T02:12:10;13.88;;;5.05;;
54665;SDS011;40566;50.006;36.180;2022-10-22T02:17:14;10.30;;;4.10;;
54665;SDS011;40566;50.006;36.180;2022-10-22T02:22:18;14.15;;;4.90;;
54665;SDS011;40566;50.006;36.180;2022-10-22T02:27:24;12.77;;;5.20;;
54665;SDS011;40566;50.006;36.180;2022-10-22T02:32:31;11.65;;;4.93;;
54665;SDS011;40566;50.006;36.180;2022-10-22T02:37:34;11.70;;;4.90;;
54665;SDS011;40566;50.006;36.180;2022-10-22T02:42:36;13.52;;;5.90;;
54665;SDS011;40566;50.006;36.180;2022-10-22T02:47:39;11.80;;;5.13;;
54665;SDS011;40566;50.006;36.180;2022-10-22T02:52:40;14.38;;;6.32;;
54665;SDS011;40566;50.006;36.180;2022-10-22T02:57:40;16.00;;;5.78;;
54665;SDS011;40566;50.006;36.180;2022-10-22T03:02:41;15.30;;;6.13;;
54665;SDS011;40566;50.006;36.180;2022-10-22T03:07:42;16.20;;;6.40;;
54665;SDS011;40566;50.006;36.180;2022-10-22T03:12:42;13.05;;;5.82;;
54665;SDS011;40566;50.006;36.180;2022-10-22T03:17:43;13.25;;;5.95;;
54665;SDS011;40566;50.006;36.180;2022-10-22T03:22:43;14.30;;;5.85;;
54665;SDS011;40566;50.006;36.180;2022-10-22T03:27:44;19.15;;;7.10;;
54665;SDS011;40566;50.006;36.180;2022-10-22T03:32:46;17.75;;;6.70;;
54665;SDS011;40566;50.006;36.180;2022-10-22T03:37:47;21.45;;;7.90;;
54665;SDS011;40566;50.006;36.180;2022-10-22T03:42:48;22.35;;;9.20;;
54665;SDS011;40566;50.006;36.180;2022-10-22T03:47:49;25.15;;;10.40;;
54665;SDS011;40566;50.006;36.180;2022-10-22T03:52:49;26.50;;;11.60;;
54665;SDS011;40566;50.006;36.180;2022-10-22T03:57:50;25.92;;;12.23;;
54665;SDS011;40566;50.006;36.180;2022-10-22T04:02:51;29.35;;;11.68;;
54665;SDS011;40566;50.006;36.180;2022-10-22T04:07:51;29.25;;;12.48;;
54665;SDS011;40566;50.006;36.180;2022-10-22T04:12:52;24.63;;;12.05;;
54665;SDS011;40566;50.006;36.180;2022-10-22T04:17:52;21.85;;;10.20;;
54665;SDS011;40566;50.006;36.180;2022-10-22T04:22:54;24.23;;;10.77;;
54665;SDS011;40566;50.006;36.180;2022-10-22T04:27:55;24.98;;;11.48;;
54665;SDS011;40566;50.006;36.180;2022-10-22T04:32:55;26.90;;;11.65;;
54665;SDS011;40566;50.006;36.180;2022-10-22T04:37:56;29.25;;;11.57;;
54665;SDS011;40566;50.006;36.180;2022-10-22T04:42:57;25.80;;;11.38;;
54665;SDS011;40566;50.006;36.180;2022-10-22T04:47:57;25.33;;;11.10;;
54665;SDS011;40566;50.006;36.180;2022-10-22T04:52:58;25.08;;;11.00;;
54665;SDS011;40566;50.006;36.180;2022-10-22T04:57:58;23.02;;;11.20;;
54665;SDS011;40566;50.006;36.180;2022-10-22T05:03:00;27.13;;;10.65;;
54665;SDS011;40566;50.006;36.180;2022-10-22T05:08:01;20.25;;;9.70;;
54665;SDS011;40566;50.006;36.180;2022-10-22T05:13:01;21.02;;;9.65;;
54665;SDS011;40566;50.006;36.180;2022-10-22T05:18:02;19.75;;;9.35;;
54665;SDS011;40566;50.006;36.180;2022-10-22T05:23:03;28.45;;;9.73;;
54665;SDS011;40566;50.006;36.180;2022-10-22T05:28:03;19.20;;;8.98;;
54665;SDS011;40566;50.006;36.180;2022-10-22T05:33:04;17.45;;;8.25;;
54665;SDS011;40566;50.006;36.180;2022-10-22T05:38:05;24.52;;;9.75;;
54665;SDS011;40566;50.006;36.180;2022-10-22T05:43:05;20.42;;;9.02;;
54665;SDS011;40566;50.006;36.180;2022-10-22T05:48:06;19.85;;;8.75;;
54665;SDS011;40566;50.006;36.180;2022-10-22T05:53:08;19.08;;;8.43;;
54665;SDS011;40566;50.006;36.180;2022-10-22T05:58:10;22.70;;;9.43;;
54665;SDS011;40566;50.006;36.180;2022-10-22T06:03:11;16.25;;;6.60;;
54665;SDS011;40566;50.006;36.180;2022-10-22T06:08:12;17.05;;;7.22;;
54665;SDS011;40566;50.006;36.180;2022-10-22T06:13:13;20.55;;;9.27;;
54665;SDS011;40566;50.006;36.180;2022-10-22T06:18:14;18.65;;;9.07;;
54665;SDS011;40566;50.006;36.180;2022-10-22T06:23:15;23.33;;;10.57;;
54665;SDS011;40566;50.006;36.180;2022-10-22T06:28:15;24.40;;;12.48;;
54665;SDS011;40566;50.006;36.180;2022-10-22T06:33:16;30.40;;;11.63;;
54665;SDS011;40566;50.006;36.180;2022-10-22T06:38:16;25.60;;;12.23;;
54665;SDS011;40566;50.006;36.180;2022-10-22T06:43:17;17.80;;;9.30;;
54665;SDS011;40566;50.006;36.180;2022-10-22T06:48:18;16.63;;;8.13;;
54665;SDS011;40566;50.006;36.180;2022-10-22T06:53:18;13.35;;;6.65;;
54665;SDS011;40566;50.006;36.180;2022-10-22T06:58:19;19.92;;;8.98;;
54665;SDS011;40566;50.006;36.180;2022-10-22T07:03:20;28.85;;;11.65;;
54665;SDS011;40566;50.006;36.180;2022-10-22T07:08:20;22.13;;;10.77;;
54665;SDS011;40566;50.006;36.180;2022-10-22T07:13:21;17.30;;;8.38;;
54665;SDS011;40566;50.006;36.180;2022-10-22T07:18:22;21.17;;;8.73;;
54665;SDS011;40566;50.006;36.180;2022-10-22T07:23:23;27.83;;;12.13;;
54665;SDS011;40566;50.006;36.180;2022-10-22T07:28:24;22.38;;;10.18;;
54665;SDS011;40566;50.006;36.180;2022-10-22T07:33:25;17.75;;;7.00;;
54665;SDS011;40566;50.006;36.180;2022-10-22T07:38:26;14.50;;;6.63;;
54665;SDS011;40566;50.006;36.180;2022-10-22T07:43:27;15.75;;;6.25;;
54665;SDS011;40566;50.006;36.180;2022-10-22T07:48:28;14.35;;;6.50;;
54665;SDS011;40566;50.006;36.180;2022-10-22T07:53:28;59.22;;;19.33;;
54665;SDS011;40566;50.006;36.180;2022-10-22T07:58:29;22.98;;;8.48;;
54665;SDS011;40566;50.006;36.180;2022-10-22T08:03:30;17.65;;;7.72;;
54665;SDS011;40566;50.006;36.180;2022-10-22T08:08:31;20.13;;;7.55;;
54665;SDS011;40566;50.006;36.180;2022-10-22T08:13:33;16.70;;;7.05;;
54665;SDS011;40566;50.006;36.180;2022-10-22T08:18:34;17.08;;;5.07;;
54665;SDS011;40566;50.006;36.180;2022-10-22T08:23:34;11.02;;;4.82;;
54665;SDS011;40566;50.006;36.180;2022-10-22T08:28:35;11.38;;;4.40;;
54665;SDS011;40566;50.006;36.180;2022-10-22T08:33:36;10.07;;;3.85;;
54665;SDS011;40566;50.006;36.180;2022-10-22T08:38:38;11.07;;;4.22;;
54665;SDS011;40566;50.006;36.180;2022-10-22T08:48:48;14.95;;;7.07;;
54665;SDS011;40566;50.006;36.180;2022-10-22T08:54:07;13.63;;;4.80;;
54665;SDS011;40566;50.006;36.180;2022-10-22T09:04:32;14.48;;;5.97;;
54665;SDS011;40566;50.006;36.180;2022-10-22T09:09:41;10.07;;;3.78;;
54665;SDS011;40566;50.006;36.180;2022-10-22T09:14:46;9.88;;;4.07;;
54665;SDS011;40566;50.006;36.180;2022-10-22T09:25:24;10.35;;;4.40;;
54665;SDS011;40566;50.006;36.180;2022-10-22T09:30:28;36.97;;;16.83;;
54665;SDS011;40566;50.006;36.180;2022-10-22T09:36:14;9.20;;;3.38;;
54665;SDS011;40566;50.006;36.180;2022-10-22T09:41:02;6.30;;;2.85;;
54665;SDS011;40566;50.006;36.180;2022-10-22T09:46:05;7.18;;;3.08;;
54665;SDS011;40566;50.006;36.180;2022-10-22T09:57:20;6.03;;;2.63;;
54665;SDS011;40566;50.006;36.180;2022-10-22T10:02:21;7.05;;;3.00;;
54665;SDS011;40566;50.006;36.180;2022-10-22T10:07:27;8.88;;;2.83;;
54665;SDS011;40566;50.006;36.180;2022-10-22T10:12:43;8.65;;;3.33;;
54665;SDS011;40566;50.006;36.180;2022-10-22T10:18:30;7.68;;;3.20;;
54665;SDS011;40566;50.006;36.180;2022-10-22T10:34:18;7.28;;;3.00;;
54665;SDS011;40566;50.006;36.180;2022-10-22T10:50:15;6.18;;;2.63;;
54665;SDS011;40566;50.006;36.180;2022-10-22T11:06:31;18.42;;;6.05;;
54665;SDS011;40566;50.006;36.180;2022-10-22T11:11:35;7.25;;;2.55;;
54665;SDS011;40566;50.006;36.180;2022-10-22T11:16:46;9.48;;;3.60;;
54665;SDS011;40566;50.006;36.180;2022-10-22T11:21:58;5.82;;;2.63;;
54665;SDS011;40566;50.006;36.180;2022-10-22T11:32:32;7.68;;;3.30;;
54665;SDS011;40566;50.006;36.180;2022-10-22T11:37:33;25.33;;;9.40;;
54665;SDS011;40566;50.006;36.180;2022-10-22T11:42:38;7.97;;;3.30;;
54665;SDS011;40566;50.006;36.180;2022-10-22T11:53:03;29.50;;;13.10;;
54665;SDS011;40566;50.006;36.180;2022-10-22T11:58:25;8.45;;;3.92;;
54665;SDS011;40566;50.006;36.180;2022-10-22T12:03:41;11.40;;;4.88;;
54665;SDS011;40566;50.006;36.180;2022-10-22T12:19:15;12.98;;;5.20;;
54665;SDS011;40566;50.006;36.180;2022-10-22T12:24:18;12.25;;;5.10;;
54665;SDS011;40566;50.006;36.180;2022-10-22T12:29:21;11.60;;;4.80;;
54665;SDS011;40566;50.006;36.180;2022-10-22T12:34:26;13.35;;;4.95;;
54665;SDS011;40566;50.006;36.180;2022-10-22T12:39:28;17.48;;;7.00;;
54665;SDS011;40566;50.006;36.180;2022-10-22T12:44:32;18.83;;;7.65;;
54665;SDS011;40566;50.006;36.180;2022-10-22T12:49:34;12.23;;;5.90;;
54665;SDS011;40566;50.006;36.180;2022-10-22T12:54:44;10.68;;;4.55;;
54665;SDS011;40566;50.006;36.180;2022-10-22T12:59:47;11.80;;;5.10;;
54665;SDS011;40566;50.006;36.180;2022-10-22T13:05:06;13.48;;;4.82;;
54665;SDS011;40566;50.006;36.180;2022-10-22T13:10:24;11.65;;;4.70;;
54665;SDS011;40566;50.006;36.180;2022-10-22T13:15:35;13.13;;;5.50;;
54665;SDS011;40566;50.006;36.180;2022-10-22T13:20:48;15.98;;;6.63;;
54665;SDS011;40566;50.006;36.180;2022-10-22T13:25:56;19.08;;;7.65;;
54665;SDS011;40566;50.006;36.180;2022-10-22T13:31:16;29.10;;;9.85;;
54665;SDS011;40566;50.006;36.180;2022-10-22T13:36:20;37.25;;;15.02;;
54665;SDS011;40566;50.006;36.180;2022-10-22T13:46:35;12.07;;;5.30;;
54665;SDS011;40566;50.006;36.180;2022-10-22T13:51:41;12.43;;;5.05;;
54665;SDS011;40566;50.006;36.180;2022-10-22T13:56:42;12.18;;;4.78;;
54665;SDS011;40566;50.006;36.180;2022-10-22T14:01:43;14.05;;;5.97;;
54665;SDS011;40566;50.006;36.180;2022-10-22T14:06:44;20.27;;;8.25;;
54665;SDS011;40566;50.006;36.180;2022-10-22T14:11:45;15.02;;;6.10;;
54665;SDS011;40566;50.006;36.180;2022-10-22T14:16:46;15.35;;;6.70;;
54665;SDS011;40566;50.006;36.180;2022-10-22T14:21:46;13.93;;;6.00;;
54665;SDS011;40566;50.006;36.180;2022-10-22T14:26:50;15.35;;;6.57;;
54665;SDS011;40566;50.006;36.180;2022-10-22T14:31:50;19.42;;;6.53;;
54665;SDS011;40566;50.006;36.180;2022-10-22T14:36:51;17.17;;;7.80;;
54665;SDS011;40566;50.006;36.180;2022-10-22T14:41:52;21.23;;;7.43;;
54665;SDS011;40566;50.006;36.180;2022-10-22T14:46:52;20.63;;;8.82;;
54665;SDS011;40566;50.006;36.180;2022-10-22T14:51:55;20.10;;;9.45;;
54665;SDS011;40566;50.006;36.180;2022-10-22T14:56:56;25.85;;;10.23;;
54665;SDS011;40566;50.006;36.180;2022-10-22T15:01:56;24.58;;;9.02;;
54665;SDS011;40566;50.006;36.180;2022-10-22T15:06:57;26.83;;;11.15;;
54665;SDS011;40566;50.006;36.180;2022-10-22T15:11:58;25.38;;;11.18;;
54665;SDS011;40566;50.006;36.180;2022-10-22T15:16:59;25.75;;;10.48;;
54665;SDS011;40566;50.006;36.180;2022-10-22T15:21:59;25.80;;;11.38;;
54665;SDS011;40566;50.006;36.180;2022-10-22T15:27:00;23.85;;;11.45;;
54665;SDS011;40566;50.006;36.180;2022-10-22T15:32:02;28.00;;;13.50;;
54665;SDS011;40566;50.006;36.180;2022-10-22T15:37:04;21.80;;;9.07;;
54665;SDS011;40566;50.006;36.180;2022-10-22T15:42:09;19.48;;;8.05;;
54665;SDS011;40566;50.006;36.180;2022-10-22T15:47:10;20.15;;;9.27;;
54665;SDS011;40566;50.006;36.180;2022-10-22T15:52:10;41.50;;;17.55;;
54665;SDS011;40566;50.006;36.180;2022-10-22T15:57:11;31.35;;;13.30;;
54665;SDS011;40566;50.006;36.180;2022-10-22T16:02:12;22.20;;;8.15;;
54665;SDS011;40566;50.006;36.180;2022-10-22T16:07:14;22.50;;;9.88;;
54665;SDS011;40566;50.006;36.180;2022-10-22T16:12:15;20.83;;;8.75;;
54665;SDS011;40566;50.006;36.180;2022-10-22T16:17:16;27.70;;;9.38;;
54665;SDS011;40566;50.006;36.180;2022-10-22T16:22:17;30.00;;;10.85;;
54665;SDS011;40566;50.006;36.180;2022-10-22T16:27:18;28.17;;;10.32;;
54665;SDS011;40566;50.006;36.180;2022-10-22T16:32:18;25.67;;;12.60;;
54665;SDS011;40566;50.006;36.180;2022-10-22T16:37:19;23.75;;;11.38;;
54665;SDS011;40566;50.006;36.180;2022-10-22T16:42:19;25.48;;;10.77;;
54665;SDS011;40566;50.006;36.180;2022-10-22T16:47:20;26.10;;;12.65;;
54665;SDS011;40566;50.006;36.180;2022-10-22T16:52:21;31.02;;;11.45;;
54665;SDS011;40566;50.006;36.180;2022-10-22T16:57:21;25.80;;;10.75;;
54665;SDS011;40566;50.006;36.180;2022-10-22T17:02:22;26.50;;;11.15;;
54665;SDS011;40566;50.006;36.180;2022-10-22T17:07:23;25.25;;;10.40;;
54665;SDS011;40566;50.006;36.180;2022-10-22T17:12:23;20.40;;;8.68;;
54665;SDS011;40566;50.006;36.180;2022-10-22T17:17:24;21.00;;;8.18;;
54665;SDS011;40566;50.006;36.180;2022-10-22T17:22:25;21.75;;;8.02;;
54665;SDS011;40566;50.006;36.180;2022-10-22T17:27:26;20.77;;;8.45;;
54665;SDS011;40566;50.006;36.180;2022-10-22T17:32:26;17.90;;;6.88;;
54665;SDS011;40566;50.006;36.180;2022-10-22T17:37:28;15.35;;;6.45;;
54665;SDS011;40566;50.006;36.180;2022-10-22T17:42:29;16.17;;;6.70;;
54665;SDS011;40566;50.006;36.180;2022-10-22T17:47:30;14.40;;;6.72;;
54665;SDS011;40566;50.006;36.180;2022-10-22T17:52:31;17.67;;;6.85;;
54665;SDS011;40566;50.006;36.180;2022-10-22T17:57:32;16.23;;;6.55;;
54665;SDS011;40566;50.006;36.180;2022-10-22T18:02:33;19.25;;;7.25;;
54665;SDS011;40566;50.006;36.180;2022-10-22T18:07:33;16.33;;;6.75;;
54665;SDS011;40566;50.006;36.180;2022-10-22T18:12:34;18.63;;;8.02;;
54665;SDS011;40566;50.006;36.180;2022-10-22T18:17:35;16.67;;;6.43;;
54665;SDS011;40566;50.006;36.180;2022-10-22T18:22:37;15.40;;;6.45;;
54665;SDS011;40566;50.006;36.180;2022-10-22T18:27:40;14.45;;;5.90;;
54665;SDS011;40566;50.006;36.180;2022-10-22T18:32:40;17.90;;;5.45;;
54665;SDS011;40566;50.006;36.180;2022-10-22T18:37:41;12.35;;;5.10;;
54665;SDS011;40566;50.006;36.180;2022-10-22T18:42:42;13.25;;;5.80;;
54665;SDS011;40566;50.006;36.180;2022-10-22T18:47:44;14.63;;;5.28;;
54665;SDS011;40566;50.006;36.180;2022-10-22T18:52:44;13.35;;;5.15;;
54665;SDS011;40566;50.006;36.180;2022-10-22T18:57:45;14.57;;;6.57;;
54665;SDS011;40566;50.006;36.180;2022-10-22T19:02:45;14.45;;;5.35;;
54665;SDS011;40566;50.006;36.180;2022-10-22T19:07:47;15.73;;;6.00;;
54665;SDS011;40566;50.006;36.180;2022-10-22T19:12:49;14.70;;;5.97;;
54665;SDS011;40566;50.006;36.180;2022-10-22T19:17:52;13.07;;;5.00;;
54665;SDS011;40566;50.006;36.180;2022-10-22T19:22:53;14.38;;;5.18;;
54665;SDS011;40566;50.006;36.180;2022-10-22T19:27:55;14.57;;;5.38;;
54665;SDS011;40566;50.006;36.180;2022-10-22T19:32:56;14.90;;;5.68;;
54665;SDS011;40566;50.006;36.180;2022-10-22T19:37:57;16.52;;;5.82;;
54665;SDS011;40566;50.006;36.180;2022-10-22T19:42:57;18.10;;;8.05;;
54665;SDS011;40566;50.006;36.180;2022-10-22T19:47:58;21.88;;;10.00;;
54665;SDS011;40566;50.006;36.180;2022-10-22T19:52:58;18.75;;;8.23;;
54665;SDS011;40566;50.006;36.180;2022-10-22T19:58:00;19.00;;;8.00;;
54665;SDS011;40566;50.006;36.180;2022-10-22T20:03:01;14.23;;;6.70;;
54665;SDS011;40566;50.006;36.180;2022-10-22T20:08:01;12.48;;;5.60;;
54665;SDS011;40566;50.006;36.180;2022-10-22T20:13:02;12.82;;;4.97;;
54665;SDS011;40566;50.006;36.180;2022-10-22T20:18:03;11.27;;;4.97;;
54665;SDS011;40566;50.006;36.180;2022-10-22T20:23:04;11.00;;;4.72;;
54665;SDS011;40566;50.006;36.180;2022-10-22T20:28:04;13.43;;;4.72;;
54665;SDS011;40566;50.006;36.180;2022-10-22T20:33:05;8.23;;;3.78;;
54665;SDS011;40566;50.006;36.180;2022-10-22T20:38:07;12.82;;;4.45;;
54665;SDS011;40566;50.006;36.180;2022-10-22T20:43:11;14.95;;;5.28;;
54665;SDS011;40566;50.006;36.180;2022-10-22T20:48:12;15.15;;;5.68;;
54665;SDS011;40566;50.006;36.180;2022-10-22T20:53:12;14.73;;;5.43;;
54665;SDS011;40566;50.006;36.180;2022-10-22T20:58:14;11.38;;;5.30;;
54665;SDS011;40566;50.006;36.180;2022-10-22T21:03:16;11.25;;;4.82;;
54665;SDS011;40566;50.006;36.180;2022-10-22T21:08:17;11.90;;;4.40;;
54665;SDS011;40566;50.006;36.180;2022-10-22T21:13:18;10.50;;;4.25;;
54665;SDS011;40566;50.006;36.180;2022-10-22T21:18:18;11.23;;;3.72;;
54665;SDS011;40566;50.006;36.180;2022-10-22T21:23:19;9.98;;;4.20;;
54665;SDS011;40566;50.006;36.180;2022-10-22T21:28:19;9.73;;;3.83;;
54665;SDS011;40566;50.006;36.180;2022-10-22T21:33:20;7.95;;;3.08;;
54665;SDS011;40566;50.006;36.180;2022-10-22T21:38:21;10.40;;;3.20;;
54665;SDS011;40566;50.006;36.180;2022-10-22T21:43:23;8.70;;;3.30;;
54665;SDS011;40566;50.006;36.180;2022-10-22T21:48:23;9.15;;;3.72;;
54665;SDS011;40566;50.006;36.180;2022-10-22T21:53:24;8.88;;;3.35;;
54665;SDS011;40566;50.006;36.180;2022-10-22T21:58:24;8.05;;;3.13;;
54665;SDS011;40566;50.006;36.180;2022-10-22T22:03:25;7.25;;;3.30;;
54665;SDS011;40566;50.006;36.180;2022-10-22T22:08:26;5.28;;;2.38;;
54665;SDS011;40566;50.006;36.180;2022-10-22T22:13:27;9.63;;;3.60;;
54665;SDS011;40566;50.006;36.180;2022-10-22T22:18:28;7.63;;;2.92;;
54665;SDS011;40566;50.006;36.180;2022-10-22T22:23:29;10.65;;;3.55;;
54665;SDS011;40566;50.006;36.180;2022-10-22T22:28:29;7.90;;;2.72;;
54665;SDS011;40566;50.006;36.180;2022-10-22T22:33:30;8.23;;;3.22;;
54665;SDS011;40566;50.006;36.180;2022-10-22T22:38:31;6.63;;;2.97;;
54665;SDS011;40566;50.006;36.180;2022-10-22T22:43:32;7.40;;;2.97;;
54665;SDS011;40566;50.006;36.180;2022-10-22T22:48:34;9.20;;;3.17;;
54665;SDS011;40566;50.006;36.180;2022-10-22T22:53:34;7.75;;;2.97;;
54665;SDS011;40566;50.006;36.180;2022-10-22T22:58:36;8.15;;;3.50;;
54665;SDS011;40566;50.006;36.180;2022-10-22T23:03:38;9.88;;;3.05;;
54665;SDS011;40566;50.006;36.180;2022-10-22T23:08:39;9.27;;;3.00;;
54665;SDS011;40566;50.006;36.180;2022-10-22T23:13:41;10.05;;;3.60;;
54665;SDS011;40566;50.006;36.180;2022-10-22T23:18:42;10.02;;;3.38;;
54665;SDS011;40566;50.006;36.180;2022-10-22T23:23:46;9.45;;;3.40;;
54665;SDS011;40566;50.006;36.180;2022-10-22T23:28:48;9.02;;;3.30;;
54665;SDS011;40566;50.006;36.180;2022-10-22T23:33:49;8.35;;;3.25;;
54665;SDS011;40566;50.006;36.180;2022-10-22T23:38:50;10.38;;;3.47;;
54665;SDS011;40566;50.006;36.180;2022-10-22T23:43:50;9.07;;;3.47;;
54665;SDS011;40566;50.006;36.180;2022-10-22T23:48:51;9.32;;;3.80;;
54665;SDS011;40566;50.006;36.180;2022-10-22T23:54:03;11.60;;;3.70;;
54665;SDS011;40566;50.006;36.180;2022-10-22T23:59:05;9.38;;;2.90;;
